sensor_id;sensor_type;location;lat;lon;timestamp;pressure;altitude;pressure_sealevel;temperature;humidity
45369;BME280;51342;55.250;37.668;2023-01-10T00:00:01;101638.56;;;-17.93;69.60
45369;BME280;51342;55.250;37.668;2023-01-10T00:02:32;101637.34;;;-17.91;69.47
45369;BME280;51342;55.250;37.668;2023-01-10T00:05:04;101633.59;;;-17.85;69.73
45369;BME280;51342;55.250;37.668;2023-01-10T00:07:35;101629.88;;;-17.83;69.70
45369;BME280;51342;55.250;37.668;2023-01-10T00:10:07;101633.91;;;-17.83;69.67
45369;BME280;51342;55.250;37.668;2023-01-10T00:12:39;101637.91;;;-17.84;70.04
45369;BME280;51342;55.250;37.668;2023-01-10T00:15:33;101630.22;;;-17.85;69.48
45369;BME280;51342;55.250;37.668;2023-01-10T00:18:04;101638.22;;;-17.82;69.50
45369;BME280;51342;55.250;37.668;2023-01-10T00:20:36;101621.81;;;-17.78;69.49
45369;BME280;51342;55.250;37.668;2023-01-10T00:23:07;101629.53;;;-17.76;69.67
45369;BME280;51342;55.250;37.668;2023-01-10T00:25:39;101628.28;;;-17.74;69.52
45369;BME280;51342;55.250;37.668;2023-01-10T00:28:10;101631.06;;;-17.73;69.52
45369;BME280;51342;55.250;37.668;2023-01-10T00:30:52;101635.59;;;-17.66;69.49
45369;BME280;51342;55.250;37.668;2023-01-10T00:33:50;101621.72;;;-17.70;69.69
45369;BME280;51342;55.250;37.668;2023-01-10T00:36:21;101621.69;;;-17.66;69.60
45369;BME280;51342;55.250;37.668;2023-01-10T00:38:53;101629.06;;;-17.57;69.43
45369;BME280;51342;55.250;37.668;2023-01-10T00:41:24;101631.19;;;-17.55;69.57
45369;BME280;51342;55.250;37.668;2023-01-10T00:44:14;101623.47;;;-17.52;69.63
45369;BME280;51342;55.250;37.668;2023-01-10T00:46:45;101625.59;;;-17.46;69.63
45369;BME280;51342;55.250;37.668;2023-01-10T00:49:17;101624.94;;;-17.41;69.46
45369;BME280;51342;55.250;37.668;2023-01-10T00:51:48;101632.28;;;-17.36;69.47
45369;BME280;51342;55.250;37.668;2023-01-10T00:54:20;101614.06;;;-17.37;69.59
45369;BME280;51342;55.250;37.668;2023-01-10T00:56:51;101607.88;;;-17.35;69.48
45369;BME280;51342;55.250;37.668;2023-01-10T00:59:23;101615.31;;;-17.35;69.44
45369;BME280;51342;55.250;37.668;2023-01-10T01:01:55;101599.19;;;-17.33;69.45
45369;BME280;51342;55.250;37.668;2023-01-10T01:04:26;101582.25;;;-17.40;69.57
45369;BME280;51342;55.250;37.668;2023-01-10T01:06:57;101594.81;;;-17.30;69.64
45369;BME280;51342;55.250;37.668;2023-01-10T01:09:29;101585.88;;;-17.29;69.62
45369;BME280;51342;55.250;37.668;2023-01-10T01:12:00;101580.94;;;-17.29;69.48
45369;BME280;51342;55.250;37.668;2023-01-10T01:14:32;101580.59;;;-17.27;69.50
45369;BME280;51342;55.250;37.668;2023-01-10T01:17:03;101570.97;;;-17.25;69.49
45369;BME280;51342;55.250;37.668;2023-01-10T01:19:34;101558.97;;;-17.28;69.17
45369;BME280;51342;55.250;37.668;2023-01-10T01:22:06;101564.78;;;-17.23;69.26
45369;BME280;51342;55.250;37.668;2023-01-10T01:24:37;101581.75;;;-17.21;69.23
45369;BME280;51342;55.250;37.668;2023-01-10T01:27:09;101580.56;;;-17.23;69.36
45369;BME280;51342;55.250;37.668;2023-01-10T01:29:40;101581.09;;;-17.16;69.41
45369;BME280;51342;55.250;37.668;2023-01-10T01:32:12;101596.56;;;-17.13;69.38
45369;BME280;51342;55.250;37.668;2023-01-10T01:34:43;101596.56;;;-17.13;69.34
45369;BME280;51342;55.250;37.668;2023-01-10T01:37:18;101590.97;;;-17.11;69.45
45369;BME280;51342;55.250;37.668;2023-01-10T01:39:49;101597.72;;;-17.06;69.46
45369;BME280;51342;55.250;37.668;2023-01-10T01:53:28;101595.75;;;-16.95;69.37
45369;BME280;51342;55.250;37.668;2023-01-10T01:56:10;101587.16;;;-17.01;69.43
45369;BME280;51342;55.250;37.668;2023-01-10T01:58:51;101590.47;;;-16.93;69.37
45369;BME280;51342;55.250;37.668;2023-01-10T02:01:24;101598.75;;;-16.84;69.32
45369;BME280;51342;55.250;37.668;2023-01-10T02:04:03;101598.13;;;-16.87;69.59
45369;BME280;51342;55.250;37.668;2023-01-10T02:06:38;101600.59;;;-16.83;69.39
45369;BME280;51342;55.250;37.668;2023-01-10T02:11:54;101586.66;;;-16.82;69.50
45369;BME280;51342;55.250;37.668;2023-01-10T02:14:26;101588.84;;;-16.84;69.42
45369;BME280;51342;55.250;37.668;2023-01-10T02:16:57;101597.19;;;-16.83;69.10
45369;BME280;51342;55.250;37.668;2023-01-10T02:34:34;101604.88;;;-16.78;69.09
45369;BME280;51342;55.250;37.668;2023-01-10T02:40:06;101612.44;;;-16.68;69.22
45369;BME280;51342;55.250;37.668;2023-01-10T02:42:45;101614.91;;;-16.68;69.17
45369;BME280;51342;55.250;37.668;2023-01-10T02:45:38;101600.69;;;-16.69;69.17
45369;BME280;51342;55.250;37.668;2023-01-10T02:48:11;101610.16;;;-16.59;69.23
45369;BME280;51342;55.250;37.668;2023-01-10T02:50:45;101601.47;;;-16.56;69.15
45369;BME280;51342;55.250;37.668;2023-01-10T02:53:22;101599.59;;;-16.53;69.32
45369;BME280;51342;55.250;37.668;2023-01-10T03:06:51;101596.19;;;-16.54;69.04
45369;BME280;51342;55.250;37.668;2023-01-10T03:09:40;101589.41;;;-16.55;69.22
45369;BME280;51342;55.250;37.668;2023-01-10T03:12:45;101594.63;;;-16.53;68.94
45369;BME280;51342;55.250;37.668;2023-01-10T03:15:20;101584.69;;;-16.49;69.14
45369;BME280;51342;55.250;37.668;2023-01-10T03:17:55;101590.81;;;-16.43;69.08
45369;BME280;51342;55.250;37.668;2023-01-10T03:20:30;101583.06;;;-16.45;69.06
45369;BME280;51342;55.250;37.668;2023-01-10T03:23:05;101591.38;;;-16.40;69.21
45369;BME280;51342;55.250;37.668;2023-01-10T03:25:37;101596.91;;;-16.37;69.26
45369;BME280;51342;55.250;37.668;2023-01-10T03:28:14;101585.09;;;-16.34;69.07
45369;BME280;51342;55.250;37.668;2023-01-10T03:30:51;101588.00;;;-16.45;69.29
45369;BME280;51342;55.250;37.668;2023-01-10T03:33:26;101602.16;;;-16.36;69.01
45369;BME280;51342;55.250;37.668;2023-01-10T03:38:56;101600.28;;;-16.33;68.99
45369;BME280;51342;55.250;37.668;2023-01-10T03:44:02;101601.47;;;-16.30;69.02
45369;BME280;51342;55.250;37.668;2023-01-10T03:50:00;101597.41;;;-16.26;68.88
45369;BME280;51342;55.250;37.668;2023-01-10T03:52:34;101602.88;;;-16.19;69.05
45369;BME280;51342;55.250;37.668;2023-01-10T03:55:09;101617.69;;;-16.15;69.16
45369;BME280;51342;55.250;37.668;2023-01-10T03:57:41;101614.00;;;-16.17;69.04
45369;BME280;51342;55.250;37.668;2023-01-10T04:00:14;101621.63;;;-16.07;68.96
45369;BME280;51342;55.250;37.668;2023-01-10T04:02:45;101613.84;;;-16.04;69.11
45369;BME280;51342;55.250;37.668;2023-01-10T04:05:17;101624.31;;;-16.01;69.13
45369;BME280;51342;55.250;37.668;2023-01-10T04:07:48;101621.16;;;-15.96;68.86
45369;BME280;51342;55.250;37.668;2023-01-10T04:10:19;101618.41;;;-15.98;68.75
45369;BME280;51342;55.250;37.668;2023-01-10T04:12:51;101623.00;;;-15.95;68.93
45369;BME280;51342;55.250;37.668;2023-01-10T04:15:22;101611.91;;;-15.97;69.14
45369;BME280;51342;55.250;37.668;2023-01-10T04:17:54;101617.41;;;-15.94;69.15
45369;BME280;51342;55.250;37.668;2023-01-10T04:20:26;101618.31;;;-15.94;68.96
45369;BME280;51342;55.250;37.668;2023-01-10T04:22:57;101608.78;;;-15.96;68.89
45369;BME280;51342;55.250;37.668;2023-01-10T04:25:29;101615.16;;;-15.89;68.95
45369;BME280;51342;55.250;37.668;2023-01-10T04:28:00;101623.84;;;-15.87;68.82
45369;BME280;51342;55.250;37.668;2023-01-10T04:30:31;101625.66;;;-15.86;68.78
45369;BME280;51342;55.250;37.668;2023-01-10T04:33:03;101621.34;;;-15.87;69.08
45369;BME280;51342;55.250;37.668;2023-01-10T04:35:34;101629.03;;;-15.81;68.89
45369;BME280;51342;55.250;37.668;2023-01-10T04:38:06;101635.19;;;-15.79;68.88
45369;BME280;51342;55.250;37.668;2023-01-10T04:40:37;101634.53;;;-15.78;68.96
45369;BME280;51342;55.250;37.668;2023-01-10T04:43:09;101637.34;;;-15.76;69.09
45369;BME280;51342;55.250;37.668;2023-01-10T04:45:42;101643.78;;;-15.73;68.90
45369;BME280;51342;55.250;37.668;2023-01-10T04:48:13;101628.63;;;-15.74;68.85
45369;BME280;51342;55.250;37.668;2023-01-10T04:50:49;101636.06;;;-15.74;68.88
45369;BME280;51342;55.250;37.668;2023-01-10T04:53:21;101632.00;;;-15.74;68.98
45369;BME280;51342;55.250;37.668;2023-01-10T04:55:52;101638.53;;;-15.74;68.93
45369;BME280;51342;55.250;37.668;2023-01-10T04:58:23;101641.94;;;-15.74;68.96
45369;BME280;51342;55.250;37.668;2023-01-10T05:00:55;101645.94;;;-15.70;69.02
45369;BME280;51342;55.250;37.668;2023-01-10T05:03:26;101646.25;;;-15.73;68.85
45369;BME280;51342;55.250;37.668;2023-01-10T05:05:57;101647.13;;;-15.68;68.89
45369;BME280;51342;55.250;37.668;2023-01-10T05:08:29;101650.53;;;-15.68;68.84
45369;BME280;51342;55.250;37.668;2023-01-10T05:11:00;101649.59;;;-15.68;68.99
45369;BME280;51342;55.250;37.668;2023-01-10T05:13:32;101655.47;;;-15.68;68.81
45369;BME280;51342;55.250;37.668;2023-01-10T05:16:04;101656.75;;;-15.70;68.72
45369;BME280;51342;55.250;37.668;2023-01-10T05:18:35;101668.16;;;-15.66;68.62
45369;BME280;51342;55.250;37.668;2023-01-10T05:21:09;101662.88;;;-15.64;68.86
45369;BME280;51342;55.250;37.668;2023-01-10T05:23:40;101681.16;;;-15.63;68.68
45369;BME280;51342;55.250;37.668;2023-01-10T05:26:18;101681.16;;;-15.63;68.63
45369;BME280;51342;55.250;37.668;2023-01-10T05:28:50;101679.84;;;-15.61;68.70
45369;BME280;51342;55.250;37.668;2023-01-10T05:31:21;101687.25;;;-15.57;68.72
45369;BME280;51342;55.250;37.668;2023-01-10T05:33:52;101683.25;;;-15.61;68.70
45369;BME280;51342;55.250;37.668;2023-01-10T05:36:24;101686.31;;;-15.58;68.54
45369;BME280;51342;55.250;37.668;2023-01-10T05:38:56;101686.97;;;-15.59;68.58
45369;BME280;51342;55.250;37.668;2023-01-10T05:41:27;101700.19;;;-15.54;68.57
45369;BME280;51342;55.250;37.668;2023-01-10T05:43:58;101698.94;;;-15.52;68.52
45369;BME280;51342;55.250;37.668;2023-01-10T05:46:30;101707.97;;;-15.53;68.71
45369;BME280;51342;55.250;37.668;2023-01-10T05:49:01;101715.41;;;-15.53;68.57
45369;BME280;51342;55.250;37.668;2023-01-10T05:51:33;101719.31;;;-15.45;68.68
45369;BME280;51342;55.250;37.668;2023-01-10T05:54:05;101732.91;;;-15.43;68.34
45369;BME280;51342;55.250;37.668;2023-01-10T05:56:36;101732.00;;;-15.43;68.49
45369;BME280;51342;55.250;37.668;2023-01-10T05:59:08;101743.06;;;-15.37;68.64
45369;BME280;51342;55.250;37.668;2023-01-10T06:01:40;101735.31;;;-15.35;68.62
45369;BME280;51342;55.250;37.668;2023-01-10T06:04:11;101741.47;;;-15.33;68.62
45369;BME280;51342;55.250;37.668;2023-01-10T06:06:43;101743.63;;;-15.30;68.57
45369;BME280;51342;55.250;37.668;2023-01-10T06:09:14;101741.41;;;-15.29;68.65
45369;BME280;51342;55.250;37.668;2023-01-10T06:11:45;101745.75;;;-15.28;68.67
45369;BME280;51342;55.250;37.668;2023-01-10T06:14:17;101741.06;;;-15.26;68.66
45369;BME280;51342;55.250;37.668;2023-01-10T06:16:49;101746.97;;;-15.26;68.63
45369;BME280;51342;55.250;37.668;2023-01-10T06:19:20;101745.06;;;-15.22;68.52
45369;BME280;51342;55.250;37.668;2023-01-10T06:21:52;101743.50;;;-15.22;68.48
45369;BME280;51342;55.250;37.668;2023-01-10T06:24:23;101743.16;;;-15.19;68.62
45369;BME280;51342;55.250;37.668;2023-01-10T06:26:55;101744.34;;;-15.17;68.55
45369;BME280;51342;55.250;37.668;2023-01-10T06:29:26;101750.84;;;-15.14;68.43
45369;BME280;51342;55.250;37.668;2023-01-10T06:31:57;101748.63;;;-15.12;68.40
45369;BME280;51342;55.250;37.668;2023-01-10T06:34:29;101752.94;;;-15.11;68.67
45369;BME280;51342;55.250;37.668;2023-01-10T06:37:00;101754.09;;;-15.05;68.41
45369;BME280;51342;55.250;37.668;2023-01-10T06:39:31;101767.72;;;-15.03;68.34
45369;BME280;51342;55.250;37.668;2023-01-10T06:42:03;101764.53;;;-14.98;68.31
45369;BME280;51342;55.250;37.668;2023-01-10T06:44:34;101762.94;;;-14.93;68.33
45369;BME280;51342;55.250;37.668;2023-01-10T06:47:06;101751.66;;;-14.87;68.35
45369;BME280;51342;55.250;37.668;2023-01-10T06:49:37;101757.22;;;-14.84;68.16
45369;BME280;51342;55.250;37.668;2023-01-10T06:52:08;101759.91;;;-14.79;68.24
45369;BME280;51342;55.250;37.668;2023-01-10T06:54:40;101749.06;;;-14.79;68.19
45369;BME280;51342;55.250;37.668;2023-01-10T06:57:11;101752.03;;;-14.72;68.25
45369;BME280;51342;55.250;37.668;2023-01-10T06:59:43;101745.13;;;-14.69;68.15
45369;BME280;51342;55.250;37.668;2023-01-10T07:02:14;101746.09;;;-14.68;68.15
45369;BME280;51342;55.250;37.668;2023-01-10T07:04:47;101751.88;;;-14.64;68.12
45369;BME280;51342;55.250;37.668;2023-01-10T07:07:18;101751.28;;;-14.63;68.30
45369;BME280;51342;55.250;37.668;2023-01-10T07:09:50;101762.34;;;-14.57;68.15
45369;BME280;51342;55.250;37.668;2023-01-10T07:12:21;101772.19;;;-14.53;68.19
45369;BME280;51342;55.250;37.668;2023-01-10T07:14:53;101768.16;;;-14.52;68.13
45369;BME280;51342;55.250;37.668;2023-01-10T07:17:24;101761.94;;;-14.50;68.18
45369;BME280;51342;55.250;37.668;2023-01-10T07:19:55;101778.16;;;-14.38;68.10
45369;BME280;51342;55.250;37.668;2023-01-10T07:22:27;101768.47;;;-14.37;68.17
45369;BME280;51342;55.250;37.668;2023-01-10T07:24:59;101774.31;;;-14.32;67.91
45369;BME280;51342;55.250;37.668;2023-01-10T07:27:31;101770.84;;;-14.29;67.97
45369;BME280;51342;55.250;37.668;2023-01-10T07:30:03;101777.22;;;-14.21;67.85
45369;BME280;51342;55.250;37.668;2023-01-10T07:32:34;101770.31;;;-14.18;67.83
45369;BME280;51342;55.250;37.668;2023-01-10T07:35:06;101775.78;;;-14.11;68.10
45369;BME280;51342;55.250;37.668;2023-01-10T07:37:38;101780.34;;;-14.04;67.75
45369;BME280;51342;55.250;37.668;2023-01-10T07:40:10;101786.81;;;-14.01;67.72
45369;BME280;51342;55.250;37.668;2023-01-10T07:42:41;101787.09;;;-13.99;67.77
45369;BME280;51342;55.250;37.668;2023-01-10T07:45:13;101778.59;;;-13.96;67.70
45369;BME280;51342;55.250;37.668;2023-01-10T07:47:47;101783.16;;;-13.89;67.50
45369;BME280;51342;55.250;37.668;2023-01-10T07:50:18;101777.59;;;-13.92;67.47
45369;BME280;51342;55.250;37.668;2023-01-10T07:52:50;101798.91;;;-13.84;67.32
45369;BME280;51342;55.250;37.668;2023-01-10T07:55:21;101771.84;;;-13.83;67.36
45369;BME280;51342;55.250;37.668;2023-01-10T07:57:53;101796.56;;;-13.75;67.19
45369;BME280;51342;55.250;37.668;2023-01-10T08:00:24;101783.47;;;-13.74;67.20
45369;BME280;51342;55.250;37.668;2023-01-10T08:02:56;101797.41;;;-13.70;67.10
45369;BME280;51342;55.250;37.668;2023-01-10T08:05:27;101792.03;;;-13.68;67.11
45369;BME280;51342;55.250;37.668;2023-01-10T08:08:09;101800.16;;;-13.69;66.98
45369;BME280;51342;55.250;37.668;2023-01-10T08:10:41;101798.44;;;-13.60;67.17
45369;BME280;51342;55.250;37.668;2023-01-10T08:13:12;101794.00;;;-13.57;67.01
45369;BME280;51342;55.250;37.668;2023-01-10T08:15:44;101796.34;;;-13.49;67.12
45369;BME280;51342;55.250;37.668;2023-01-10T08:18:18;101793.88;;;-13.49;67.03
45369;BME280;51342;55.250;37.668;2023-01-10T08:20:51;101790.28;;;-13.41;66.83
45369;BME280;51342;55.250;37.668;2023-01-10T08:23:23;101780.97;;;-13.42;66.87
45369;BME280;51342;55.250;37.668;2023-01-10T08:25:57;101794.44;;;-13.32;66.72
45369;BME280;51342;55.250;37.668;2023-01-10T08:28:29;101795.25;;;-13.27;66.93
45369;BME280;51342;55.250;37.668;2023-01-10T08:31:08;101796.47;;;-13.25;66.42
45369;BME280;51342;55.250;37.668;2023-01-10T08:33:39;101788.94;;;-13.21;66.46
45369;BME280;51342;55.250;37.668;2023-01-10T08:36:15;101791.28;;;-13.17;66.28
45369;BME280;51342;55.250;37.668;2023-01-10T08:38:47;101786.59;;;-13.16;66.40
45369;BME280;51342;55.250;37.668;2023-01-10T08:41:20;101780.75;;;-13.06;66.52
45369;BME280;51342;55.250;37.668;2023-01-10T08:43:52;101786.59;;;-13.02;66.09
45369;BME280;51342;55.250;37.668;2023-01-10T08:46:24;101787.22;;;-13.03;66.36
45369;BME280;51342;55.250;37.668;2023-01-10T08:48:55;101794.59;;;-12.99;66.15
45369;BME280;51342;55.250;37.668;2023-01-10T08:51:27;101779.03;;;-12.98;66.38
45369;BME280;51342;55.250;37.668;2023-01-10T08:53:59;101784.19;;;-12.92;66.24
45369;BME280;51342;55.250;37.668;2023-01-10T08:56:30;101782.97;;;-12.94;65.78
45369;BME280;51342;55.250;37.668;2023-01-10T08:59:02;101788.78;;;-12.90;65.84
45369;BME280;51342;55.250;37.668;2023-01-10T09:01:33;101783.72;;;-12.86;65.88
45369;BME280;51342;55.250;37.668;2023-01-10T09:04:05;101765.44;;;-12.90;65.80
45369;BME280;51342;55.250;37.668;2023-01-10T09:06:37;101791.38;;;-12.80;65.58
45369;BME280;51342;55.250;37.668;2023-01-10T09:09:08;101779.84;;;-12.79;65.62
45369;BME280;51342;55.250;37.668;2023-01-10T09:11:39;101777.88;;;-12.76;65.50
45369;BME280;51342;55.250;37.668;2023-01-10T09:14:11;101783.69;;;-12.72;65.30
45369;BME280;51342;55.250;37.668;2023-01-10T09:16:42;101787.66;;;-12.68;65.37
45369;BME280;51342;55.250;37.668;2023-01-10T09:19:14;101791.72;;;-12.69;65.20
45369;BME280;51342;55.250;37.668;2023-01-10T09:21:45;101789.50;;;-12.67;65.31
45369;BME280;51342;55.250;37.668;2023-01-10T09:24:17;101789.50;;;-12.67;65.23
45369;BME280;51342;55.250;37.668;2023-01-10T09:26:48;101781.03;;;-12.64;65.04
45369;BME280;51342;55.250;37.668;2023-01-10T09:29:19;101769.97;;;-12.70;65.14
45369;BME280;51342;55.250;37.668;2023-01-10T09:31:51;101782.59;;;-12.64;65.11
45369;BME280;51342;55.250;37.668;2023-01-10T09:34:22;101770.13;;;-12.64;65.14
45369;BME280;51342;55.250;37.668;2023-01-10T09:36:54;101777.78;;;-12.59;64.85
45369;BME280;51342;55.250;37.668;2023-01-10T09:39:26;101778.31;;;-12.56;64.71
45369;BME280;51342;55.250;37.668;2023-01-10T09:48:02;101777.56;;;-12.50;64.76
45369;BME280;51342;55.250;37.668;2023-01-10T09:53:27;101769.59;;;-12.44;65.06
45369;BME280;51342;55.250;37.668;2023-01-10T09:56:01;101768.84;;;-12.39;64.51
45369;BME280;51342;55.250;37.668;2023-01-10T09:58:34;101778.75;;;-12.35;64.33
45369;BME280;51342;55.250;37.668;2023-01-10T10:01:13;101763.22;;;-12.38;64.26
45369;BME280;51342;55.250;37.668;2023-01-10T10:04:22;101764.78;;;-12.38;64.41
45369;BME280;51342;55.250;37.668;2023-01-10T10:06:56;101771.03;;;-12.26;64.47
45369;BME280;51342;55.250;37.668;2023-01-10T10:09:30;101776.56;;;-12.23;64.32
45369;BME280;51342;55.250;37.668;2023-01-10T10:15:38;101776.69;;;-12.27;64.16
45369;BME280;51342;55.250;37.668;2023-01-10T10:24:32;101787.47;;;-12.23;63.96
45369;BME280;51342;55.250;37.668;2023-01-10T10:33:02;101775.16;;;-12.17;63.98
45369;BME280;51342;55.250;37.668;2023-01-10T10:35:43;101773.59;;;-12.17;63.95
45369;BME280;51342;55.250;37.668;2023-01-10T10:38:47;101776.09;;;-12.17;63.85
45369;BME280;51342;55.250;37.668;2023-01-10T10:41:33;101775.59;;;-12.10;63.91
45369;BME280;51342;55.250;37.668;2023-01-10T10:44:42;101774.94;;;-12.09;63.97
45369;BME280;51342;55.250;37.668;2023-01-10T10:47:17;101768.38;;;-12.09;63.80
45369;BME280;51342;55.250;37.668;2023-01-10T10:52:25;101770.00;;;-11.99;63.72
45369;BME280;51342;55.250;37.668;2023-01-10T10:54:58;101768.06;;;-11.96;63.81
45369;BME280;51342;55.250;37.668;2023-01-10T10:57:31;101768.44;;;-11.99;63.68
45369;BME280;51342;55.250;37.668;2023-01-10T11:00:06;101766.84;;;-11.98;64.09
45369;BME280;51342;55.250;37.668;2023-01-10T11:02:48;101765.41;;;-12.02;63.64
45369;BME280;51342;55.250;37.668;2023-01-10T11:05:35;101767.91;;;-12.02;63.73
45369;BME280;51342;55.250;37.668;2023-01-10T11:08:11;101769.09;;;-12.00;63.63
45369;BME280;51342;55.250;37.668;2023-01-10T11:10:47;101773.06;;;-11.96;63.70
45369;BME280;51342;55.250;37.668;2023-01-10T11:16:04;101782.25;;;-11.91;63.70
45369;BME280;51342;55.250;37.668;2023-01-10T11:18:36;101789.13;;;-11.90;63.71
45369;BME280;51342;55.250;37.668;2023-01-10T11:21:11;101785.91;;;-11.99;63.56
45369;BME280;51342;55.250;37.668;2023-01-10T11:23:53;101797.06;;;-11.97;63.72
45369;BME280;51342;55.250;37.668;2023-01-10T11:26:30;101799.72;;;-11.91;63.61
45369;BME280;51342;55.250;37.668;2023-01-10T11:29:16;101790.97;;;-11.89;63.59
45369;BME280;51342;55.250;37.668;2023-01-10T11:31:48;101790.53;;;-11.96;63.43
45369;BME280;51342;55.250;37.668;2023-01-10T11:34:32;101789.22;;;-11.94;63.44
45369;BME280;51342;55.250;37.668;2023-01-10T11:37:23;101792.38;;;-11.95;63.61
45369;BME280;51342;55.250;37.668;2023-01-10T11:42:55;101806.19;;;-11.88;63.57
45369;BME280;51342;55.250;37.668;2023-01-10T11:45:32;101797.22;;;-11.91;63.61
45369;BME280;51342;55.250;37.668;2023-01-10T11:48:18;101803.69;;;-11.88;63.54
45369;BME280;51342;55.250;37.668;2023-01-10T11:50:54;101804.63;;;-11.87;63.42
45369;BME280;51342;55.250;37.668;2023-01-10T11:53:38;101800.94;;;-11.89;63.36
45369;BME280;51342;55.250;37.668;2023-01-10T11:56:22;101795.28;;;-11.88;63.29
45369;BME280;51342;55.250;37.668;2023-01-10T11:58:56;101790.28;;;-11.88;63.37
45369;BME280;51342;55.250;37.668;2023-01-10T12:01:40;101797.69;;;-11.84;63.31
45369;BME280;51342;55.250;37.668;2023-01-10T12:04:14;101804.72;;;-11.91;63.23
45369;BME280;51342;55.250;37.668;2023-01-10T12:06:56;101804.09;;;-11.90;63.27
45369;BME280;51342;55.250;37.668;2023-01-10T12:09:59;101797.63;;;-11.94;63.02
45369;BME280;51342;55.250;37.668;2023-01-10T12:12:33;101810.09;;;-11.94;63.24
45369;BME280;51342;55.250;37.668;2023-01-10T12:15:22;101803.63;;;-11.97;63.11
45369;BME280;51342;55.250;37.668;2023-01-10T12:17:57;101802.63;;;-11.94;63.10
45369;BME280;51342;55.250;37.668;2023-01-10T12:20:43;101809.53;;;-11.97;62.89
45369;BME280;51342;55.250;37.668;2023-01-10T12:23:19;101815.75;;;-11.95;63.12
45369;BME280;51342;55.250;37.668;2023-01-10T12:25:52;101815.09;;;-11.94;63.05
45369;BME280;51342;55.250;37.668;2023-01-10T12:28:27;101814.84;;;-11.95;62.90
45369;BME280;51342;55.250;37.668;2023-01-10T12:31:00;101821.41;;;-11.96;63.07
45369;BME280;51342;55.250;37.668;2023-01-10T12:33:37;101817.69;;;-11.98;62.89
45369;BME280;51342;55.250;37.668;2023-01-10T12:44:50;101816.69;;;-12.08;63.06
45369;BME280;51342;55.250;37.668;2023-01-10T12:47:32;101825.13;;;-12.08;63.02
45369;BME280;51342;55.250;37.668;2023-01-10T12:50:37;101814.34;;;-12.12;63.18
45369;BME280;51342;55.250;37.668;2023-01-10T12:53:31;101829.78;;;-12.19;63.09
45369;BME280;51342;55.250;37.668;2023-01-10T12:56:06;101825.97;;;-12.17;63.18
45369;BME280;51342;55.250;37.668;2023-01-10T12:58:42;101838.84;;;-12.19;63.09
45369;BME280;51342;55.250;37.668;2023-01-10T13:01:35;101828.69;;;-12.25;63.31
45369;BME280;51342;55.250;37.668;2023-01-10T13:04:15;101826.47;;;-12.23;63.34
45369;BME280;51342;55.250;37.668;2023-01-10T13:06:49;101819.34;;;-12.26;63.23
45369;BME280;51342;55.250;37.668;2023-01-10T13:09:24;101823.81;;;-12.29;63.30
45369;BME280;51342;55.250;37.668;2023-01-10T13:12:27;101820.88;;;-12.36;63.21
45369;BME280;51342;55.250;37.668;2023-01-10T13:18:14;101815.78;;;-12.46;63.13
45369;BME280;51342;55.250;37.668;2023-01-10T13:20:46;101815.41;;;-12.43;63.26
45369;BME280;51342;55.250;37.668;2023-01-10T13:23:22;101810.16;;;-12.45;63.30
45369;BME280;51342;55.250;37.668;2023-01-10T13:25:59;101818.94;;;-12.47;63.03
45369;BME280;51342;55.250;37.668;2023-01-10T13:28:32;101825.50;;;-12.47;63.29
45369;BME280;51342;55.250;37.668;2023-01-10T13:31:07;101823.09;;;-12.51;63.29
45369;BME280;51342;55.250;37.668;2023-01-10T13:33:54;101825.03;;;-12.54;63.41
45369;BME280;51342;55.250;37.668;2023-01-10T13:36:35;101819.22;;;-12.59;63.27
45369;BME280;51342;55.250;37.668;2023-01-10T13:39:35;101817.09;;;-12.62;63.34
45369;BME280;51342;55.250;37.668;2023-01-10T13:45:27;101809.44;;;-12.67;63.31
45369;BME280;51342;55.250;37.668;2023-01-10T13:48:01;101818.75;;;-12.66;63.41
45369;BME280;51342;55.250;37.668;2023-01-10T13:50:47;101818.31;;;-12.73;63.54
45369;BME280;51342;55.250;37.668;2023-01-10T13:55:57;101819.50;;;-12.71;63.48
45369;BME280;51342;55.250;37.668;2023-01-10T13:58:39;101816.47;;;-12.74;63.60
45369;BME280;51342;55.250;37.668;2023-01-10T14:01:35;101815.25;;;-12.76;63.53
45369;BME280;51342;55.250;37.668;2023-01-10T14:04:32;101825.22;;;-12.76;63.62
45369;BME280;51342;55.250;37.668;2023-01-10T14:07:20;101830.59;;;-12.79;63.50
45369;BME280;51342;55.250;37.668;2023-01-10T14:09:59;101822.84;;;-12.80;63.47
45369;BME280;51342;55.250;37.668;2023-01-10T14:12:37;101814.72;;;-12.79;63.61
45369;BME280;51342;55.250;37.668;2023-01-10T14:15:22;101812.31;;;-12.84;63.59
45369;BME280;51342;55.250;37.668;2023-01-10T14:18:14;101827.25;;;-12.84;63.71
45369;BME280;51342;55.250;37.668;2023-01-10T14:21:20;101835.41;;;-12.85;63.55
45369;BME280;51342;55.250;37.668;2023-01-10T14:23:55;101830.97;;;-12.81;63.75
45369;BME280;51342;55.250;37.668;2023-01-10T14:26:31;101811.41;;;-12.84;63.69
45369;BME280;51342;55.250;37.668;2023-01-10T14:29:08;101818.22;;;-12.83;63.70
45369;BME280;51342;55.250;37.668;2023-01-10T14:31:45;101815.47;;;-12.85;63.84
45369;BME280;51342;55.250;37.668;2023-01-10T14:34:21;101823.31;;;-12.87;63.88
45369;BME280;51342;55.250;37.668;2023-01-10T14:36:58;101824.84;;;-12.88;63.85
45369;BME280;51342;55.250;37.668;2023-01-10T14:39:31;101832.34;;;-12.88;63.70
45369;BME280;51342;55.250;37.668;2023-01-10T14:42:06;101836.69;;;-12.87;63.67
45369;BME280;51342;55.250;37.668;2023-01-10T14:44:57;101835.78;;;-12.87;63.87
45369;BME280;51342;55.250;37.668;2023-01-10T14:47:32;101835.13;;;-12.86;63.88
45369;BME280;51342;55.250;37.668;2023-01-10T14:50:04;101834.22;;;-12.87;63.77
45369;BME280;51342;55.250;37.668;2023-01-10T14:52:40;101832.63;;;-12.86;63.81